createdAt,value
2023-03-13T00:01:08.510Z,66.00
2023-03-13T00:03:08.509Z,66.00
2023-03-13T00:05:08.655Z,66.00
2023-03-13T00:07:08.510Z,66.00
2023-03-13T00:09:08.612Z,66.00
2023-03-13T00:11:08.613Z,66.00
2023-03-13T00:13:08.514Z,67.00
2023-03-13T00:15:08.517Z,67.00
2023-03-13T00:17:08.578Z,68.00
2023-03-13T00:19:08.558Z,68.00
2023-03-13T00:21:08.518Z,68.00
2023-03-13T00:23:08.548Z,68.00
2023-03-13T00:25:08.530Z,68.00
2023-03-13T00:27:08.557Z,68.00
2023-03-13T00:29:08.535Z,69.00
2023-03-13T00:31:08.706Z,69.00
2023-03-13T00:33:08.533Z,69.00
2023-03-13T00:35:08.820Z,69.00
2023-03-13T00:37:08.531Z,69.00
2023-03-13T00:39:08.616Z,69.00
2023-03-13T00:41:08.639Z,70.00
2023-03-13T00:43:08.621Z,70.00
2023-03-13T00:45:08.546Z,70.00
2023-03-13T00:47:08.532Z,70.00
2023-03-13T00:49:08.785Z,70.00
2023-03-13T00:51:08.587Z,70.00
2023-03-13T00:53:08.525Z,70.00
2023-03-13T00:55:08.524Z,70.00
2023-03-13T00:57:08.544Z,70.00
2023-03-13T00:59:08.544Z,71.00
2023-03-13T01:01:08.567Z,71.00
2023-03-13T01:03:38.637Z,71.00
2023-03-13T01:05:38.552Z,71.00
2023-03-13T01:07:38.549Z,71.00
2023-03-13T01:09:38.544Z,71.00
2023-03-13T01:11:38.657Z,71.00
2023-03-13T01:13:38.568Z,71.00
2023-03-13T01:15:38.642Z,71.00
2023-03-13T01:17:38.558Z,71.00
2023-03-13T01:19:38.551Z,71.00
2023-03-13T01:21:38.566Z,71.00
2023-03-13T01:23:38.570Z,71.00
2023-03-13T01:25:38.674Z,71.00
2023-03-13T01:27:38.631Z,72.00
2023-03-13T01:29:38.600Z,72.00
2023-03-13T01:31:38.673Z,72.00
2023-03-13T01:33:38.574Z,72.00
2023-03-13T01:35:38.632Z,72.00
2023-03-13T01:37:38.571Z,72.00
2023-03-13T01:39:38.567Z,72.00
2023-03-13T01:41:38.606Z,72.00
2023-03-13T01:43:38.600Z,72.00
2023-03-13T01:45:38.599Z,72.00
2023-03-13T01:47:38.608Z,72.00
2023-03-13T01:49:38.835Z,71.00
2023-03-13T01:51:38.591Z,71.00
2023-03-13T01:53:38.652Z,71.00
2023-03-13T01:55:38.625Z,71.00
2023-03-13T01:57:38.596Z,71.00
2023-03-13T01:59:38.686Z,71.00
2023-03-13T02:01:38.712Z,71.00
2023-03-13T02:03:38.735Z,71.00
2023-03-13T02:05:38.588Z,71.00
2023-03-13T02:07:38.615Z,71.00
2023-03-13T02:09:38.669Z,71.00
2023-03-13T02:11:38.612Z,71.00
2023-03-13T02:13:38.594Z,71.00
2023-03-13T02:15:38.622Z,71.00
2023-03-13T02:17:38.615Z,71.00
2023-03-13T02:19:38.580Z,71.00
2023-03-13T02:21:38.604Z,71.00
2023-03-13T02:23:38.749Z,71.00
2023-03-13T02:25:38.688Z,71.00
2023-03-13T02:27:38.595Z,71.00
2023-03-13T02:29:38.715Z,71.00
2023-03-13T02:31:38.639Z,71.00
2023-03-13T02:33:38.641Z,71.00
2023-03-13T02:35:38.731Z,72.00
2023-03-13T02:37:38.651Z,72.00
2023-03-13T02:39:38.601Z,72.00
2023-03-13T02:41:38.613Z,72.00
2023-03-13T02:43:38.611Z,72.00
2023-03-13T02:45:38.684Z,72.00
2023-03-13T02:47:38.631Z,72.00
2023-03-13T02:49:38.626Z,72.00
2023-03-13T02:51:38.629Z,73.00
2023-03-13T02:53:38.689Z,73.00
2023-03-13T02:55:38.616Z,73.00
2023-03-13T02:58:08.736Z,73.00
2023-03-13T03:00:08.636Z,73.00
2023-03-13T03:02:08.619Z,73.00
2023-03-13T03:04:08.757Z,73.00
2023-03-13T03:06:08.654Z,73.00
2023-03-13T03:08:08.642Z,73.00
2023-03-13T03:10:08.785Z,73.00
2023-03-13T03:12:08.644Z,73.00
2023-03-13T03:14:08.712Z,73.00
2023-03-13T03:16:08.676Z,73.00
2023-03-13T03:18:08.693Z,73.00
2023-03-13T03:20:08.735Z,73.00
2023-03-13T03:22:08.678Z,73.00
2023-03-13T03:23:50.173Z,73.00
2023-03-13T03:25:50.123Z,73.00
2023-03-13T03:27:50.103Z,73.00
2023-03-13T03:29:50.105Z,73.00
2023-03-13T03:31:50.224Z,73.00
2023-03-13T03:33:50.103Z,73.00
2023-03-13T03:35:50.181Z,73.00
2023-03-13T03:37:50.124Z,73.00
2023-03-13T03:39:50.136Z,73.00
2023-03-13T03:42:20.146Z,73.00
2023-03-13T03:44:20.096Z,73.00
2023-03-13T03:46:20.137Z,73.00
2023-03-13T03:48:20.121Z,73.00
2023-03-13T03:50:20.151Z,73.00
2023-03-13T03:52:21.229Z,74.00
2023-03-13T03:54:20.165Z,74.00
2023-03-13T03:56:20.098Z,74.00
2023-03-13T03:58:20.213Z,74.00
2023-03-13T04:00:20.134Z,74.00
2023-03-13T04:02:20.226Z,74.00
2023-03-13T04:04:20.153Z,74.00
2023-03-13T04:06:20.123Z,74.00
2023-03-13T04:08:20.138Z,75.00
2023-03-13T04:10:20.212Z,75.00
2023-03-13T04:12:20.117Z,75.00
2023-03-13T04:14:20.134Z,75.00
2023-03-13T04:16:20.206Z,75.00
2023-03-13T04:18:20.242Z,75.00
2023-03-13T04:20:20.160Z,76.00
2023-03-13T04:22:20.135Z,76.00
2023-03-13T04:24:20.127Z,76.00
2023-03-13T04:26:20.148Z,76.00
2023-03-13T04:28:20.238Z,76.00
2023-03-13T04:30:20.240Z,76.00
2023-03-13T04:32:20.186Z,76.00
2023-03-13T04:34:20.263Z,76.00
2023-03-13T04:36:20.228Z,76.00
2023-03-13T04:38:20.161Z,77.00
2023-03-13T04:40:20.170Z,77.00
2023-03-13T04:42:20.230Z,77.00
2023-03-13T04:44:20.249Z,77.00
2023-03-13T04:46:20.234Z,77.00
2023-03-13T04:48:21.833Z,77.00
2023-03-13T04:50:20.167Z,77.00
2023-03-13T04:52:20.236Z,77.00
2023-03-13T04:54:20.149Z,77.00
2023-03-13T04:56:21.523Z,78.00
2023-03-13T04:58:20.153Z,78.00
2023-03-13T05:00:20.168Z,78.00
2023-03-13T05:02:20.148Z,78.00
2023-03-13T05:04:20.184Z,78.00
2023-03-13T05:06:20.160Z,78.00
2023-03-13T05:08:20.230Z,78.00
2023-03-13T05:10:20.228Z,78.00
2023-03-13T05:12:20.168Z,78.00
2023-03-13T05:14:20.183Z,78.00
2023-03-13T05:16:20.303Z,77.00
2023-03-13T05:18:20.178Z,78.00
2023-03-13T05:20:20.171Z,78.00
2023-03-13T05:22:20.176Z,77.00
2023-03-13T05:24:20.173Z,77.00
2023-03-13T05:26:20.253Z,77.00
2023-03-13T05:28:20.289Z,78.00
2023-03-13T05:30:20.352Z,78.00
2023-03-13T05:32:20.375Z,78.00
2023-03-13T05:34:20.189Z,77.00
2023-03-13T05:36:20.174Z,77.00
2023-03-13T05:38:50.228Z,77.00
2023-03-13T05:40:50.233Z,77.00
2023-03-13T05:42:50.270Z,77.00
2023-03-13T05:44:50.299Z,77.00
2023-03-13T05:46:50.336Z,77.00
2023-03-13T05:48:50.226Z,77.00
2023-03-13T05:50:50.447Z,77.00
2023-03-13T05:52:50.173Z,77.00
2023-03-13T05:54:50.266Z,77.00
2023-03-13T05:56:50.349Z,77.00
2023-03-13T05:58:50.283Z,77.00
2023-03-13T06:00:50.293Z,77.00
2023-03-13T06:02:50.302Z,77.00
2023-03-13T06:04:50.280Z,77.00
2023-03-13T06:06:50.234Z,77.00
2023-03-13T06:08:50.272Z,77.00
2023-03-13T06:10:50.267Z,77.00
2023-03-13T06:12:50.264Z,77.00
2023-03-13T06:14:50.316Z,77.00
2023-03-13T06:16:50.296Z,77.00
2023-03-13T06:18:50.435Z,77.00
2023-03-13T06:20:50.226Z,77.00
2023-03-13T06:22:50.204Z,77.00
2023-03-13T06:24:50.400Z,76.00
2023-03-13T06:26:50.216Z,76.00
2023-03-13T06:28:50.208Z,76.00
2023-03-13T06:30:50.317Z,76.00
2023-03-13T06:32:50.497Z,76.00
2023-03-13T06:34:50.202Z,75.00
2023-03-13T06:36:50.248Z,75.00
2023-03-13T06:38:50.207Z,75.00
2023-03-13T06:40:50.212Z,75.00
2023-03-13T06:42:50.221Z,75.00
2023-03-13T06:44:50.202Z,75.00
2023-03-13T06:46:50.279Z,75.00
2023-03-13T06:48:50.223Z,75.00
2023-03-13T06:50:50.255Z,75.00
2023-03-13T06:52:50.247Z,75.00
2023-03-13T06:54:50.270Z,75.00
2023-03-13T06:56:50.210Z,75.00
2023-03-13T06:58:50.220Z,75.00
2023-03-13T07:00:50.305Z,75.00
2023-03-13T07:02:50.352Z,75.00
2023-03-13T07:04:50.223Z,74.00
2023-03-13T07:06:50.388Z,74.00
2023-03-13T07:08:50.252Z,74.00
2023-03-13T07:10:50.215Z,74.00
2023-03-13T07:12:50.242Z,74.00
2023-03-13T07:14:50.254Z,72.00
2023-03-13T07:16:50.417Z,72.00
2023-03-13T07:18:50.256Z,72.00
2023-03-13T07:20:50.262Z,72.00
2023-03-13T07:22:50.259Z,72.00
2023-03-13T07:24:50.370Z,71.00
2023-03-13T07:27:04.195Z,71.00
2023-03-13T07:28:50.355Z,71.00
2023-03-13T07:30:50.276Z,71.00
2023-03-13T07:32:50.344Z,71.00
2023-03-13T07:35:20.249Z,71.00
2023-03-13T07:37:20.283Z,71.00
2023-03-13T07:39:20.257Z,71.00
2023-03-13T07:41:20.295Z,71.00
2023-03-13T07:43:20.261Z,71.00
2023-03-13T07:45:20.257Z,71.00
2023-03-13T07:47:20.352Z,71.00
2023-03-13T07:49:20.278Z,71.00
2023-03-13T07:51:25.210Z,71.00
2023-03-13T07:53:20.303Z,71.00
2023-03-13T07:55:20.320Z,71.00
2023-03-13T07:57:20.253Z,71.00
2023-03-13T07:59:20.272Z,71.00
2023-03-13T08:01:20.253Z,71.00
2023-03-13T08:03:20.315Z,71.00
2023-03-13T08:05:20.256Z,71.00
2023-03-13T08:07:20.305Z,71.00
2023-03-13T08:09:20.282Z,71.00
2023-03-13T08:11:20.333Z,71.00
2023-03-13T08:13:20.312Z,71.00
2023-03-13T08:15:20.274Z,71.00
2023-03-13T08:17:20.358Z,71.00
2023-03-13T08:19:20.315Z,71.00
2023-03-13T08:21:20.306Z,71.00
2023-03-13T08:23:20.263Z,71.00
2023-03-13T08:25:20.340Z,71.00
2023-03-13T08:27:20.286Z,71.00
2023-03-13T08:29:20.299Z,71.00
2023-03-13T08:31:20.533Z,71.00
2023-03-13T08:33:20.266Z,71.00
2023-03-13T08:35:20.386Z,71.00
2023-03-13T08:37:20.307Z,71.00
2023-03-13T08:39:20.305Z,71.00
2023-03-13T08:41:20.288Z,71.00
2023-03-13T08:43:20.357Z,71.00
2023-03-13T08:45:20.317Z,71.00
2023-03-13T08:47:20.279Z,71.00
2023-03-13T08:49:20.327Z,71.00
2023-03-13T08:51:20.316Z,71.00
2023-03-13T08:53:20.301Z,71.00
2023-03-13T08:55:20.307Z,71.00
2023-03-13T08:57:20.330Z,71.00
2023-03-13T08:59:20.299Z,71.00
2023-03-13T09:01:20.360Z,71.00
2023-03-13T09:03:20.354Z,71.00
2023-03-13T09:05:20.339Z,71.00
2023-03-13T09:07:20.318Z,71.00
2023-03-13T09:09:20.344Z,69.00
2023-03-13T09:11:20.333Z,69.00
2023-03-13T09:13:20.331Z,69.00
2023-03-13T09:15:20.332Z,69.00
2023-03-13T09:17:20.335Z,68.00
2023-03-13T09:19:20.309Z,68.00
2023-03-13T09:21:20.344Z,68.00
2023-03-13T09:23:20.341Z,67.00
2023-03-13T09:25:20.342Z,67.00
2023-03-13T09:27:20.353Z,67.00
2023-03-13T09:29:20.375Z,67.00
2023-03-13T09:31:50.343Z,68.00
2023-03-13T09:33:50.338Z,68.00
2023-03-13T09:35:50.371Z,68.00
2023-03-13T09:37:50.383Z,68.00
2023-03-13T09:39:50.329Z,68.00
2023-03-13T09:41:50.394Z,68.00
2023-03-13T09:43:50.328Z,68.00
2023-03-13T09:45:50.363Z,68.00
2023-03-13T09:47:50.363Z,68.00
2023-03-13T09:49:50.372Z,68.00
2023-03-13T09:51:50.342Z,68.00
2023-03-13T09:53:50.389Z,68.00
2023-03-13T09:55:50.380Z,68.00
2023-03-13T09:57:50.514Z,67.00
2023-03-13T09:59:50.362Z,67.00
2023-03-13T10:01:50.460Z,67.00
2023-03-13T10:03:50.342Z,67.00
2023-03-13T10:05:50.337Z,67.00
2023-03-13T10:07:50.384Z,67.00
2023-03-13T10:09:50.357Z,67.00
2023-03-13T10:11:50.409Z,67.00
2023-03-13T10:13:50.427Z,67.00
2023-03-13T10:15:50.475Z,67.00
2023-03-13T10:19:50.427Z,67.00
2023-03-13T10:21:50.513Z,67.00
2023-03-13T10:23:50.404Z,67.00
2023-03-13T10:25:50.422Z,67.00
2023-03-13T10:28:01.202Z,67.00
2023-03-13T10:30:01.237Z,67.00
2023-03-13T10:32:01.198Z,67.00
2023-03-13T10:34:01.157Z,67.00
2023-03-13T10:36:01.203Z,67.00
2023-03-13T10:38:01.194Z,68.00
2023-03-13T10:40:01.164Z,68.00
2023-03-13T10:42:01.172Z,68.00
2023-03-13T10:44:01.172Z,68.00
2023-03-13T10:46:01.176Z,68.00
2023-03-13T10:48:01.165Z,68.00
2023-03-13T10:50:01.174Z,67.00
2023-03-13T10:52:01.178Z,66.00
2023-03-13T10:54:01.175Z,66.00
2023-03-13T10:56:01.202Z,65.00
2023-03-13T10:58:01.176Z,65.00
2023-03-13T11:00:03.176Z,64.00
2023-03-13T11:02:01.193Z,64.00
2023-03-13T11:04:01.354Z,61.00
2023-03-13T11:06:01.217Z,61.00
2023-03-13T11:08:01.206Z,61.00
2023-03-13T11:10:01.185Z,60.00
2023-03-13T11:12:01.296Z,60.00
2023-03-13T11:14:01.174Z,60.00
2023-03-13T11:16:01.233Z,60.00
2023-03-13T11:18:01.194Z,60.00
2023-03-13T11:20:01.207Z,60.00
2023-03-13T11:22:01.232Z,60.00
2023-03-13T11:24:01.191Z,59.00
2023-03-13T11:26:01.189Z,59.00
2023-03-13T11:28:01.234Z,60.00
2023-03-13T11:30:01.250Z,60.00
2023-03-13T11:32:01.262Z,60.00
2023-03-13T11:34:01.215Z,60.00
2023-03-13T11:36:01.285Z,60.00
2023-03-13T11:38:01.207Z,60.00
2023-03-13T11:40:01.263Z,61.00
2023-03-13T11:42:01.314Z,61.00
2023-03-13T11:44:01.204Z,61.00
2023-03-13T11:46:01.342Z,61.00
2023-03-13T11:48:01.216Z,61.00
2023-03-13T11:50:01.237Z,60.00
2023-03-13T11:52:01.223Z,60.00
2023-03-13T11:54:02.131Z,60.00
2023-03-13T11:56:01.338Z,61.00
2023-03-13T11:58:01.237Z,61.00
2023-03-13T12:00:01.239Z,60.00
2023-03-13T12:02:01.345Z,60.00
2023-03-13T12:04:01.257Z,60.00
2023-03-13T12:06:01.244Z,60.00
2023-03-13T12:08:01.236Z,60.00
2023-03-13T12:10:01.221Z,61.00
2023-03-13T12:12:01.255Z,61.00
2023-03-13T12:14:31.214Z,61.00
2023-03-13T12:16:31.270Z,61.00
2023-03-13T12:18:31.255Z,61.00
2023-03-13T12:20:31.233Z,61.00
2023-03-13T12:22:31.292Z,61.00
2023-03-13T12:24:31.241Z,58.00
2023-03-13T12:26:31.316Z,58.00
2023-03-13T12:28:31.300Z,59.00
2023-03-13T12:30:31.249Z,59.00
2023-03-13T12:32:31.311Z,59.00
2023-03-13T12:34:31.262Z,59.00
2023-03-13T12:36:31.303Z,59.00
2023-03-13T12:38:31.266Z,59.00
2023-03-13T12:40:31.307Z,59.00
2023-03-13T12:42:31.245Z,59.00
2023-03-13T12:44:31.263Z,58.00
2023-03-13T12:46:31.392Z,58.00
2023-03-13T12:48:31.294Z,58.00
2023-03-13T12:50:31.277Z,58.00
2023-03-13T12:52:31.285Z,55.00
2023-03-13T12:54:31.320Z,55.00
2023-03-13T12:56:31.585Z,54.00
2023-03-13T12:58:31.315Z,54.00
2023-03-13T13:00:31.346Z,54.00
2023-03-13T13:02:31.272Z,54.00
2023-03-13T13:04:31.374Z,54.00
2023-03-13T13:06:31.292Z,54.00
2023-03-13T13:08:31.299Z,54.00
2023-03-13T13:10:31.293Z,54.00
2023-03-13T13:12:31.322Z,55.00
2023-03-13T13:14:31.392Z,55.00
2023-03-13T13:16:31.377Z,55.00
2023-03-13T13:18:31.359Z,55.00
2023-03-13T13:20:31.326Z,55.00
2023-03-13T13:22:31.501Z,55.00
2023-03-13T13:24:31.300Z,55.00
2023-03-13T13:26:31.327Z,55.00
2023-03-13T13:28:31.346Z,55.00
2023-03-13T13:30:31.350Z,55.00
2023-03-13T13:32:31.369Z,53.00
2023-03-13T13:34:31.411Z,53.00
2023-03-13T13:36:31.314Z,53.00
2023-03-13T13:38:31.296Z,53.00
2023-03-13T13:40:31.319Z,53.00
2023-03-13T13:42:31.316Z,52.00
2023-03-13T13:44:31.353Z,52.00
2023-03-13T13:46:31.454Z,51.00
2023-03-13T13:48:31.342Z,51.00
2023-03-13T13:50:31.445Z,51.00
2023-03-13T13:52:31.345Z,51.00
2023-03-13T13:54:31.335Z,51.00
2023-03-13T13:56:31.403Z,51.00
2023-03-13T13:58:31.355Z,51.00
2023-03-13T14:00:31.337Z,51.00
2023-03-13T14:02:31.370Z,52.00
2023-03-13T14:04:31.341Z,52.00
2023-03-13T14:06:31.373Z,52.00
2023-03-13T14:08:31.380Z,53.00
2023-03-13T14:10:31.338Z,54.00
2023-03-13T14:12:31.374Z,54.00
2023-03-13T14:14:31.345Z,54.00
2023-03-13T14:16:31.434Z,54.00
2023-03-13T14:19:01.369Z,54.00
2023-03-13T14:21:01.354Z,54.00
2023-03-13T14:23:01.724Z,54.00
2023-03-13T14:25:01.338Z,54.00
2023-03-13T14:27:01.364Z,54.00
2023-03-13T14:29:01.351Z,54.00
2023-03-13T14:31:01.393Z,57.00
2023-03-13T14:33:01.405Z,57.00
2023-03-13T14:35:01.370Z,57.00
2023-03-13T14:37:17.247Z,56.00
2023-03-13T14:39:01.394Z,56.00
2023-03-13T14:41:01.437Z,56.00
2023-03-13T14:43:01.518Z,56.00
2023-03-13T14:45:01.360Z,56.00
2023-03-13T14:47:01.427Z,56.00
2023-03-13T14:49:01.497Z,56.00
2023-03-13T14:51:14.220Z,56.00
2023-03-13T14:53:01.385Z,56.00
2023-03-13T14:55:01.511Z,56.00
2023-03-13T14:57:01.439Z,56.00
2023-03-13T14:59:01.551Z,56.00
2023-03-13T15:01:01.480Z,56.00
2023-03-13T15:03:01.441Z,56.00
2023-03-13T15:05:01.509Z,56.00
2023-03-13T15:07:01.492Z,56.00
2023-03-13T15:09:02.471Z,56.00
2023-03-13T15:11:01.523Z,56.00
2023-03-13T15:13:01.417Z,56.00
2023-03-13T15:15:01.419Z,56.00
2023-03-13T15:17:01.484Z,56.00
2023-03-13T15:19:01.392Z,55.00
2023-03-13T15:21:01.416Z,55.00
2023-03-13T15:23:01.423Z,55.00
2023-03-13T15:25:07.446Z,55.00
2023-03-13T15:27:01.400Z,55.00
2023-03-13T15:29:01.432Z,55.00
2023-03-13T15:31:01.395Z,55.00
2023-03-13T15:33:01.488Z,56.00
2023-03-13T15:35:01.455Z,56.00
2023-03-13T15:37:01.497Z,55.00
2023-03-13T15:39:01.527Z,56.00
2023-03-13T15:41:01.505Z,56.00
2023-03-13T15:43:01.438Z,56.00
2023-03-13T15:45:01.567Z,56.00
2023-03-13T15:47:01.469Z,56.00
2023-03-13T15:49:01.501Z,56.00
2023-03-13T15:51:01.414Z,56.00
2023-03-13T15:53:01.514Z,56.00
2023-03-13T15:55:01.564Z,56.00
2023-03-13T15:57:01.545Z,56.00
2023-03-13T15:59:01.459Z,56.00
2023-03-13T16:01:01.584Z,56.00
2023-03-13T16:03:01.896Z,56.00
2023-03-13T16:05:01.427Z,56.00
2023-03-13T16:07:01.492Z,57.00
2023-03-13T16:09:01.721Z,57.00
2023-03-13T16:11:01.519Z,57.00
2023-03-13T16:13:01.501Z,57.00
2023-03-13T16:15:01.457Z,57.00
2023-03-13T16:17:01.665Z,57.00
2023-03-13T16:19:01.484Z,57.00
2023-03-13T16:21:01.497Z,57.00
2023-03-13T16:23:31.459Z,57.00
2023-03-13T16:25:31.479Z,57.00
2023-03-13T16:27:31.560Z,57.00
2023-03-13T16:29:31.481Z,57.00
2023-03-13T16:31:31.610Z,57.00
2023-03-13T16:33:31.474Z,58.00
2023-03-13T16:35:31.542Z,58.00
2023-03-13T16:37:31.509Z,58.00
2023-03-13T16:39:31.547Z,58.00
2023-03-13T16:41:31.553Z,58.00
2023-03-13T16:43:31.551Z,58.00
2023-03-13T16:45:31.490Z,58.00
2023-03-13T16:47:31.619Z,58.00
2023-03-13T16:49:31.490Z,58.00
2023-03-13T16:51:31.558Z,58.00
2023-03-13T16:53:31.611Z,59.00
2023-03-13T16:55:31.623Z,59.00
2023-03-13T16:57:31.656Z,59.00
2023-03-13T16:59:31.559Z,59.00
2023-03-13T17:01:31.502Z,59.00
2023-03-13T17:03:31.498Z,59.00
2023-03-13T17:05:31.550Z,59.00
2023-03-13T17:07:31.647Z,59.00
2023-03-13T17:09:31.600Z,59.00
2023-03-13T17:11:31.643Z,59.00
2023-03-13T17:13:31.649Z,60.00
2023-03-13T17:15:31.659Z,60.00
2023-03-13T17:17:31.506Z,60.00
2023-03-13T17:19:31.487Z,60.00
2023-03-13T17:23:31.530Z,60.00
2023-03-13T17:27:39.978Z,60.00
2023-03-13T17:29:40.005Z,60.00
2023-03-13T17:31:39.989Z,60.00
2023-03-13T17:33:39.927Z,60.00
2023-03-13T17:35:39.972Z,60.00
2023-03-13T17:37:39.938Z,60.00
2023-03-13T17:39:39.960Z,61.00
2023-03-13T17:41:40.008Z,61.00
2023-03-13T17:43:39.994Z,61.00
2023-03-13T17:45:40.024Z,61.00
2023-03-13T17:47:39.915Z,61.00
2023-03-13T17:49:39.915Z,61.00
2023-03-13T17:51:39.924Z,61.00
2023-03-13T17:53:40.002Z,62.00
2023-03-13T17:55:39.969Z,62.00
2023-03-13T17:57:40.000Z,61.00
2023-03-13T17:59:40.004Z,61.00
2023-03-13T18:01:40.000Z,61.00
2023-03-13T18:03:39.952Z,61.00
2023-03-13T18:05:41.046Z,61.00
2023-03-13T18:07:39.975Z,62.00
2023-03-13T18:09:40.031Z,62.00
2023-03-13T18:11:40.044Z,62.00
2023-03-13T18:13:40.013Z,62.00
2023-03-13T18:15:39.966Z,61.00
2023-03-13T18:17:39.912Z,61.00
2023-03-13T18:19:39.972Z,61.00
2023-03-13T18:21:39.961Z,61.00
2023-03-13T18:23:40.047Z,61.00
2023-03-13T18:25:39.910Z,61.00
2023-03-13T18:27:39.998Z,61.00
2023-03-13T18:29:39.929Z,61.00
2023-03-13T18:31:40.192Z,61.00
2023-03-13T18:33:41.726Z,61.00
2023-03-13T18:35:39.971Z,60.00
2023-03-13T18:37:39.960Z,60.00
2023-03-13T18:39:40.035Z,60.00
2023-03-13T18:41:40.012Z,60.00
2023-03-13T18:43:40.024Z,60.00
2023-03-13T18:45:40.050Z,60.00
2023-03-13T18:47:39.976Z,60.00
2023-03-13T18:49:40.030Z,60.00
2023-03-13T18:51:39.952Z,60.00
2023-03-13T18:54:10.022Z,60.00
2023-03-13T18:56:10.019Z,60.00
2023-03-13T18:58:10.060Z,60.00
2023-03-13T19:00:10.040Z,60.00
2023-03-13T19:02:10.086Z,60.00
2023-03-13T19:04:09.997Z,60.00
2023-03-13T19:06:09.979Z,60.00
2023-03-13T19:08:10.000Z,60.00
2023-03-13T19:10:10.010Z,60.00
2023-03-13T19:12:10.002Z,60.00
2023-03-13T19:14:10.052Z,60.00
2023-03-13T19:16:09.988Z,60.00
2023-03-13T19:18:10.073Z,60.00
2023-03-13T19:20:10.000Z,60.00
2023-03-13T19:22:10.012Z,60.00
2023-03-13T19:24:10.021Z,60.00
2023-03-13T19:26:10.273Z,60.00
2023-03-13T19:28:10.114Z,60.00
2023-03-13T19:30:10.063Z,60.00
2023-03-13T19:32:10.134Z,60.00
2023-03-13T19:34:10.090Z,60.00
2023-03-13T19:36:10.001Z,68.00
2023-03-13T19:38:10.048Z,71.00
2023-03-13T19:40:10.080Z,73.00
2023-03-13T19:42:10.008Z,74.00
2023-03-13T19:44:10.048Z,74.00
2023-03-13T19:46:10.009Z,75.00
2023-03-13T19:48:10.077Z,75.00
2023-03-13T19:50:09.986Z,75.00
2023-03-13T19:52:10.042Z,76.00
2023-03-13T19:54:10.027Z,76.00
2023-03-13T19:56:10.061Z,77.00
2023-03-13T19:58:10.040Z,77.00
2023-03-13T20:00:10.051Z,78.00
2023-03-13T20:02:10.109Z,78.00
2023-03-13T20:04:10.099Z,77.00
2023-03-13T20:06:10.038Z,77.00
2023-03-13T20:08:10.021Z,78.00
2023-03-13T20:10:10.048Z,78.00
2023-03-13T20:12:10.052Z,78.00
2023-03-13T20:14:10.066Z,78.00
2023-03-13T20:16:10.175Z,78.00
2023-03-13T20:18:10.038Z,78.00
2023-03-13T20:20:10.008Z,78.00
2023-03-13T20:22:10.013Z,78.00
2023-03-13T20:24:10.064Z,78.00
2023-03-13T20:26:09.985Z,79.00
2023-03-13T20:28:10.086Z,79.00
2023-03-13T20:30:10.089Z,79.00
2023-03-13T20:32:10.012Z,79.00
2023-03-13T20:34:10.095Z,79.00
2023-03-13T20:36:10.044Z,79.00
2023-03-13T20:38:10.029Z,79.00
2023-03-13T20:40:09.993Z,79.00
2023-03-13T20:42:10.097Z,80.00
2023-03-13T20:44:10.088Z,80.00
2023-03-13T20:46:10.157Z,80.00
2023-03-13T20:48:10.029Z,80.00
2023-03-13T20:50:10.134Z,80.00
2023-03-13T20:52:40.094Z,81.00
2023-03-13T20:54:40.101Z,81.00
2023-03-13T20:56:40.093Z,81.00
2023-03-13T20:58:40.108Z,81.00
2023-03-13T21:00:40.102Z,81.00
2023-03-13T21:02:40.139Z,81.00
2023-03-13T21:04:40.104Z,81.00
2023-03-13T21:06:40.068Z,82.00
2023-03-13T21:08:40.088Z,82.00
2023-03-13T21:10:40.085Z,82.00
2023-03-13T21:12:40.076Z,82.00
2023-03-13T21:14:40.133Z,82.00
2023-03-13T21:16:40.180Z,82.00
2023-03-13T21:18:40.041Z,82.00
2023-03-13T21:20:40.022Z,82.00
2023-03-13T21:22:40.072Z,82.00
2023-03-13T21:24:40.123Z,81.00
2023-03-13T21:26:40.016Z,81.00
2023-03-13T21:28:40.144Z,81.00
2023-03-13T21:30:40.116Z,81.00
2023-03-13T21:32:40.138Z,81.00
2023-03-13T21:34:40.054Z,81.00
2023-03-13T21:36:40.053Z,81.00
2023-03-13T21:38:40.309Z,81.00
2023-03-13T21:40:40.103Z,81.00
2023-03-13T21:42:40.116Z,81.00
2023-03-13T21:44:40.151Z,81.00
2023-03-13T21:46:40.185Z,81.00
2023-03-13T21:48:40.160Z,81.00
2023-03-13T21:50:40.213Z,81.00
2023-03-13T21:52:41.045Z,81.00
2023-03-13T21:54:40.093Z,81.00
2023-03-13T21:56:40.279Z,81.00
2023-03-13T21:58:40.118Z,81.00
2023-03-13T22:00:40.167Z,81.00
2023-03-13T22:02:41.047Z,81.00
2023-03-13T22:04:40.126Z,81.00
2023-03-13T22:06:40.091Z,81.00
2023-03-13T22:08:40.103Z,81.00
2023-03-13T22:10:40.164Z,81.00
2023-03-13T22:12:40.136Z,81.00
2023-03-13T22:14:40.145Z,81.00
2023-03-13T22:16:40.157Z,81.00
2023-03-13T22:18:40.182Z,81.00
2023-03-13T22:20:40.095Z,81.00
2023-03-13T22:22:40.084Z,81.00
2023-03-13T22:24:40.275Z,81.00
2023-03-13T22:26:40.088Z,81.00
2023-03-13T22:28:40.147Z,81.00
2023-03-13T22:30:40.167Z,81.00
2023-03-13T22:32:40.260Z,81.00
2023-03-13T22:34:40.215Z,81.00
2023-03-13T22:36:40.086Z,81.00
2023-03-13T22:38:40.083Z,81.00
2023-03-13T22:40:40.138Z,81.00
2023-03-13T22:42:40.187Z,81.00
2023-03-13T22:44:40.202Z,81.00
2023-03-13T22:47:10.170Z,81.00
2023-03-13T22:49:10.210Z,81.00
2023-03-13T22:51:10.117Z,81.00
2023-03-13T22:53:10.081Z,81.00
2023-03-13T22:55:10.169Z,81.00
2023-03-13T22:57:10.165Z,81.00
2023-03-13T22:59:10.174Z,81.00
2023-03-13T23:01:10.219Z,81.00
2023-03-13T23:03:10.172Z,81.00
2023-03-13T23:05:10.136Z,81.00
2023-03-13T23:07:10.122Z,81.00
2023-03-13T23:09:10.140Z,81.00
2023-03-13T23:11:10.185Z,81.00
2023-03-13T23:13:10.147Z,81.00
2023-03-13T23:15:10.186Z,81.00
2023-03-13T23:17:10.088Z,81.00
2023-03-13T23:19:10.210Z,81.00
2023-03-13T23:21:10.161Z,81.00
2023-03-13T23:23:10.132Z,81.00
2023-03-13T23:25:10.167Z,81.00
2023-03-13T23:27:10.168Z,81.00
2023-03-13T23:29:10.210Z,81.00
2023-03-13T23:31:10.223Z,81.00
2023-03-13T23:33:10.224Z,81.00
2023-03-13T23:35:10.216Z,81.00
2023-03-13T23:37:10.142Z,81.00
2023-03-13T23:39:10.123Z,81.00
2023-03-13T23:41:10.089Z,80.00
2023-03-13T23:43:10.205Z,80.00
2023-03-13T23:45:10.200Z,80.00
2023-03-13T23:47:10.222Z,80.00
2023-03-13T23:49:10.090Z,80.00
2023-03-13T23:51:10.324Z,80.00
2023-03-13T23:53:10.160Z,80.00
2023-03-13T23:55:10.145Z,80.00
2023-03-13T23:57:10.110Z,80.00
2023-03-13T23:59:10.215Z,80.00
